sensor_id;sensor_type;location;lat;lon;timestamp;temperature;humidity
18753;DHT22;9505;50.882;5.350;2023-04-06T00:01:31;1.10;99.90
18753;DHT22;9505;50.882;5.350;2023-04-06T00:03:57;1.10;99.90
18753;DHT22;9505;50.882;5.350;2023-04-06T00:06:23;1.10;99.90
18753;DHT22;9505;50.882;5.350;2023-04-06T00:08:48;1.10;99.90
18753;DHT22;9505;50.882;5.350;2023-04-06T00:11:14;1.00;99.90
18753;DHT22;9505;50.882;5.350;2023-04-06T00:13:42;1.10;99.90
18753;DHT22;9505;50.882;5.350;2023-04-06T00:16:07;1.10;99.90
18753;DHT22;9505;50.882;5.350;2023-04-06T00:18:33;1.10;99.90
18753;DHT22;9505;50.882;5.350;2023-04-06T00:20:58;1.20;99.90
18753;DHT22;9505;50.882;5.350;2023-04-06T00:23:24;1.10;99.90
18753;DHT22;9505;50.882;5.350;2023-04-06T00:25:50;1.10;99.90
18753;DHT22;9505;50.882;5.350;2023-04-06T00:28:15;1.00;99.90
18753;DHT22;9505;50.882;5.350;2023-04-06T00:30:41;1.00;99.90
18753;DHT22;9505;50.882;5.350;2023-04-06T00:33:07;0.90;99.90
18753;DHT22;9505;50.882;5.350;2023-04-06T00:35:32;0.90;99.90
18753;DHT22;9505;50.882;5.350;2023-04-06T00:37:58;0.80;99.90
18753;DHT22;9505;50.882;5.350;2023-04-06T00:40:24;0.90;99.90
18753;DHT22;9505;50.882;5.350;2023-04-06T00:42:50;0.90;99.90
18753;DHT22;9505;50.882;5.350;2023-04-06T00:45:15;0.80;99.90
18753;DHT22;9505;50.882;5.350;2023-04-06T00:47:41;0.80;99.90
18753;DHT22;9505;50.882;5.350;2023-04-06T00:50:07;0.80;99.90
18753;DHT22;9505;50.882;5.350;2023-04-06T00:52:34;0.80;99.90
18753;DHT22;9505;50.882;5.350;2023-04-06T00:55:01;0.70;99.90
18753;DHT22;9505;50.882;5.350;2023-04-06T00:57:27;0.70;99.90
18753;DHT22;9505;50.882;5.350;2023-04-06T00:59:53;0.70;99.90
18753;DHT22;9505;50.882;5.350;2023-04-06T01:02:18;0.70;99.90
18753;DHT22;9505;50.882;5.350;2023-04-06T01:04:44;0.60;99.90
18753;DHT22;9505;50.882;5.350;2023-04-06T01:07:10;0.60;99.90
18753;DHT22;9505;50.882;5.350;2023-04-06T01:09:36;0.60;99.90
18753;DHT22;9505;50.882;5.350;2023-04-06T01:12:01;0.60;99.90
18753;DHT22;9505;50.882;5.350;2023-04-06T01:14:27;0.60;99.90
18753;DHT22;9505;50.882;5.350;2023-04-06T01:16:53;0.60;99.90
18753;DHT22;9505;50.882;5.350;2023-04-06T01:19:19;0.50;99.90
18753;DHT22;9505;50.882;5.350;2023-04-06T01:21:46;0.60;99.90
18753;DHT22;9505;50.882;5.350;2023-04-06T01:24:12;0.60;99.90
18753;DHT22;9505;50.882;5.350;2023-04-06T01:26:38;0.60;99.90
18753;DHT22;9505;50.882;5.350;2023-04-06T01:29:04;0.60;99.90
18753;DHT22;9505;50.882;5.350;2023-04-06T01:31:30;0.50;99.90
18753;DHT22;9505;50.882;5.350;2023-04-06T01:33:55;0.60;99.90
18753;DHT22;9505;50.882;5.350;2023-04-06T01:36:21;0.60;99.90
18753;DHT22;9505;50.882;5.350;2023-04-06T01:38:47;0.50;99.90
18753;DHT22;9505;50.882;5.350;2023-04-06T01:41:13;0.50;99.90
18753;DHT22;9505;50.882;5.350;2023-04-06T01:43:38;0.40;99.90
18753;DHT22;9505;50.882;5.350;2023-04-06T01:46:04;0.40;99.90
18753;DHT22;9505;50.882;5.350;2023-04-06T01:48:31;0.40;99.90
18753;DHT22;9505;50.882;5.350;2023-04-06T01:50:56;0.40;99.90
18753;DHT22;9505;50.882;5.350;2023-04-06T01:53:22;0.40;99.90
18753;DHT22;9505;50.882;5.350;2023-04-06T01:55:48;0.40;99.90
18753;DHT22;9505;50.882;5.350;2023-04-06T01:58:13;0.30;99.90
18753;DHT22;9505;50.882;5.350;2023-04-06T02:00:40;0.30;99.90
18753;DHT22;9505;50.882;5.350;2023-04-06T02:03:05;0.30;99.90
18753;DHT22;9505;50.882;5.350;2023-04-06T02:05:33;0.30;99.90
18753;DHT22;9505;50.882;5.350;2023-04-06T02:08:07;0.30;99.90
18753;DHT22;9505;50.882;5.350;2023-04-06T02:10:33;0.30;99.90
18753;DHT22;9505;50.882;5.350;2023-04-06T02:12:59;0.30;99.90
18753;DHT22;9505;50.882;5.350;2023-04-06T02:15:26;0.40;99.90
18753;DHT22;9505;50.882;5.350;2023-04-06T02:17:52;0.40;99.90
18753;DHT22;9505;50.882;5.350;2023-04-06T02:20:17;0.40;99.90
18753;DHT22;9505;50.882;5.350;2023-04-06T02:22:43;0.50;99.90
18753;DHT22;9505;50.882;5.350;2023-04-06T02:25:09;0.50;99.90
18753;DHT22;9505;50.882;5.350;2023-04-06T02:27:35;0.60;99.90
18753;DHT22;9505;50.882;5.350;2023-04-06T02:30:04;0.70;99.90
18753;DHT22;9505;50.882;5.350;2023-04-06T02:32:30;0.70;99.90
18753;DHT22;9505;50.882;5.350;2023-04-06T02:34:56;0.70;99.90
18753;DHT22;9505;50.882;5.350;2023-04-06T02:37:21;0.70;99.90
18753;DHT22;9505;50.882;5.350;2023-04-06T02:39:49;0.80;99.90
18753;DHT22;9505;50.882;5.350;2023-04-06T02:42:15;0.90;99.90
18753;DHT22;9505;50.882;5.350;2023-04-06T02:44:41;1.00;99.90
18753;DHT22;9505;50.882;5.350;2023-04-06T02:47:07;1.00;99.90
18753;DHT22;9505;50.882;5.350;2023-04-06T02:49:33;1.10;99.90
18753;DHT22;9505;50.882;5.350;2023-04-06T02:51:59;1.30;99.90
18753;DHT22;9505;50.882;5.350;2023-04-06T02:54:24;1.30;99.90
18753;DHT22;9505;50.882;5.350;2023-04-06T02:56:50;1.30;99.90
18753;DHT22;9505;50.882;5.350;2023-04-06T02:59:16;1.40;99.90
18753;DHT22;9505;50.882;5.350;2023-04-06T03:01:41;1.40;99.90
18753;DHT22;9505;50.882;5.350;2023-04-06T03:04:07;1.50;99.90
18753;DHT22;9505;50.882;5.350;2023-04-06T03:06:33;1.60;99.90
18753;DHT22;9505;50.882;5.350;2023-04-06T03:08:58;1.60;99.90
18753;DHT22;9505;50.882;5.350;2023-04-06T03:11:24;1.60;99.90
18753;DHT22;9505;50.882;5.350;2023-04-06T03:13:51;1.60;99.90
18753;DHT22;9505;50.882;5.350;2023-04-06T03:16:17;1.60;99.90
18753;DHT22;9505;50.882;5.350;2023-04-06T03:18:43;1.70;99.90
18753;DHT22;9505;50.882;5.350;2023-04-06T03:21:10;1.70;99.90
18753;DHT22;9505;50.882;5.350;2023-04-06T03:23:36;1.70;99.90
18753;DHT22;9505;50.882;5.350;2023-04-06T03:26:02;1.80;99.90
18753;DHT22;9505;50.882;5.350;2023-04-06T03:28:28;1.80;99.90
18753;DHT22;9505;50.882;5.350;2023-04-06T03:30:53;1.90;99.90
18753;DHT22;9505;50.882;5.350;2023-04-06T03:33:20;1.80;99.90
18753;DHT22;9505;50.882;5.350;2023-04-06T03:35:45;1.80;99.90
18753;DHT22;9505;50.882;5.350;2023-04-06T03:38:11;1.80;99.90
18753;DHT22;9505;50.882;5.350;2023-04-06T03:40:36;1.90;99.90
18753;DHT22;9505;50.882;5.350;2023-04-06T03:43:02;1.80;99.90
18753;DHT22;9505;50.882;5.350;2023-04-06T03:45:28;1.80;99.90
18753;DHT22;9505;50.882;5.350;2023-04-06T03:47:53;1.80;99.90
18753;DHT22;9505;50.882;5.350;2023-04-06T03:50:19;1.90;99.90
18753;DHT22;9505;50.882;5.350;2023-04-06T03:52:45;1.90;99.90
18753;DHT22;9505;50.882;5.350;2023-04-06T03:55:10;1.90;99.90
18753;DHT22;9505;50.882;5.350;2023-04-06T03:57:36;1.90;99.90
18753;DHT22;9505;50.882;5.350;2023-04-06T04:00:03;1.90;99.90
18753;DHT22;9505;50.882;5.350;2023-04-06T04:02:29;1.90;99.90
18753;DHT22;9505;50.882;5.350;2023-04-06T04:04:54;2.00;99.90
18753;DHT22;9505;50.882;5.350;2023-04-06T04:07:20;2.00;99.90
18753;DHT22;9505;50.882;5.350;2023-04-06T04:09:46;2.00;99.90
18753;DHT22;9505;50.882;5.350;2023-04-06T04:12:11;1.90;99.90
18753;DHT22;9505;50.882;5.350;2023-04-06T04:14:37;2.00;99.90
18753;DHT22;9505;50.882;5.350;2023-04-06T04:17:03;2.00;99.90
18753;DHT22;9505;50.882;5.350;2023-04-06T04:19:28;2.10;99.90
18753;DHT22;9505;50.882;5.350;2023-04-06T04:21:54;2.10;99.90
18753;DHT22;9505;50.882;5.350;2023-04-06T04:24:19;2.10;99.90
18753;DHT22;9505;50.882;5.350;2023-04-06T04:26:45;2.20;99.90
18753;DHT22;9505;50.882;5.350;2023-04-06T04:29:11;2.20;99.90
18753;DHT22;9505;50.882;5.350;2023-04-06T04:31:36;2.30;99.90
18753;DHT22;9505;50.882;5.350;2023-04-06T04:34:02;2.30;99.90
18753;DHT22;9505;50.882;5.350;2023-04-06T04:36:28;2.40;99.90
18753;DHT22;9505;50.882;5.350;2023-04-06T04:38:53;2.40;99.90
18753;DHT22;9505;50.882;5.350;2023-04-06T04:41:19;2.40;99.90
18753;DHT22;9505;50.882;5.350;2023-04-06T04:43:44;2.40;99.90
18753;DHT22;9505;50.882;5.350;2023-04-06T04:46:11;2.50;99.90
18753;DHT22;9505;50.882;5.350;2023-04-06T04:48:36;2.50;99.90
18753;DHT22;9505;50.882;5.350;2023-04-06T04:51:03;2.50;99.90
18753;DHT22;9505;50.882;5.350;2023-04-06T04:53:29;2.60;99.90
18753;DHT22;9505;50.882;5.350;2023-04-06T04:55:55;2.60;99.90
18753;DHT22;9505;50.882;5.350;2023-04-06T04:58:20;2.70;99.90
18753;DHT22;9505;50.882;5.350;2023-04-06T05:00:46;2.70;99.90
18753;DHT22;9505;50.882;5.350;2023-04-06T05:03:25;2.80;99.90
18753;DHT22;9505;50.882;5.350;2023-04-06T05:05:51;2.90;99.90
18753;DHT22;9505;50.882;5.350;2023-04-06T05:08:17;3.00;99.90
18753;DHT22;9505;50.882;5.350;2023-04-06T05:10:43;3.00;99.90
18753;DHT22;9505;50.882;5.350;2023-04-06T05:13:10;3.10;99.90
18753;DHT22;9505;50.882;5.350;2023-04-06T05:15:36;3.10;99.90
18753;DHT22;9505;50.882;5.350;2023-04-06T05:18:04;3.10;99.90
18753;DHT22;9505;50.882;5.350;2023-04-06T05:20:30;3.10;99.90
18753;DHT22;9505;50.882;5.350;2023-04-06T05:22:56;3.10;99.90
18753;DHT22;9505;50.882;5.350;2023-04-06T05:25:22;3.10;99.90
18753;DHT22;9505;50.882;5.350;2023-04-06T05:27:47;3.20;99.90
18753;DHT22;9505;50.882;5.350;2023-04-06T05:30:13;3.30;99.90
18753;DHT22;9505;50.882;5.350;2023-04-06T05:32:40;3.40;99.90
18753;DHT22;9505;50.882;5.350;2023-04-06T05:35:06;3.40;99.90
18753;DHT22;9505;50.882;5.350;2023-04-06T05:37:31;3.50;99.90
18753;DHT22;9505;50.882;5.350;2023-04-06T05:39:57;3.60;99.90
18753;DHT22;9505;50.882;5.350;2023-04-06T05:42:23;3.70;99.90
18753;DHT22;9505;50.882;5.350;2023-04-06T05:44:48;3.80;99.90
18753;DHT22;9505;50.882;5.350;2023-04-06T05:47:14;3.90;99.90
18753;DHT22;9505;50.882;5.350;2023-04-06T05:49:42;3.90;99.90
18753;DHT22;9505;50.882;5.350;2023-04-06T05:52:08;4.00;99.90
18753;DHT22;9505;50.882;5.350;2023-04-06T05:54:35;4.00;99.90
18753;DHT22;9505;50.882;5.350;2023-04-06T05:57:02;4.10;99.90
18753;DHT22;9505;50.882;5.350;2023-04-06T05:59:30;4.20;99.90
18753;DHT22;9505;50.882;5.350;2023-04-06T06:01:56;4.30;99.90
18753;DHT22;9505;50.882;5.350;2023-04-06T06:04:21;4.30;99.90
18753;DHT22;9505;50.882;5.350;2023-04-06T06:06:47;4.40;99.90
18753;DHT22;9505;50.882;5.350;2023-04-06T06:09:13;4.40;99.90
18753;DHT22;9505;50.882;5.350;2023-04-06T06:11:38;4.50;99.90
18753;DHT22;9505;50.882;5.350;2023-04-06T06:14:04;4.60;99.90
18753;DHT22;9505;50.882;5.350;2023-04-06T06:16:30;4.70;99.90
18753;DHT22;9505;50.882;5.350;2023-04-06T06:18:55;4.80;99.90
18753;DHT22;9505;50.882;5.350;2023-04-06T06:21:21;4.90;99.90
18753;DHT22;9505;50.882;5.350;2023-04-06T06:23:47;5.00;99.90
18753;DHT22;9505;50.882;5.350;2023-04-06T06:26:15;5.10;99.90
18753;DHT22;9505;50.882;5.350;2023-04-06T06:28:40;5.20;99.90
18753;DHT22;9505;50.882;5.350;2023-04-06T06:31:06;5.20;99.90
18753;DHT22;9505;50.882;5.350;2023-04-06T06:33:32;5.30;99.90
18753;DHT22;9505;50.882;5.350;2023-04-06T06:35:58;5.30;99.90
18753;DHT22;9505;50.882;5.350;2023-04-06T06:38:23;5.30;99.90
18753;DHT22;9505;50.882;5.350;2023-04-06T06:40:49;5.30;99.90
18753;DHT22;9505;50.882;5.350;2023-04-06T06:43:15;5.30;99.90
18753;DHT22;9505;50.882;5.350;2023-04-06T06:45:41;5.40;99.90
18753;DHT22;9505;50.882;5.350;2023-04-06T06:48:07;5.50;99.90
18753;DHT22;9505;50.882;5.350;2023-04-06T06:50:32;5.50;99.90
18753;DHT22;9505;50.882;5.350;2023-04-06T06:52:58;5.70;99.90
18753;DHT22;9505;50.882;5.350;2023-04-06T06:55:23;5.90;99.90
18753;DHT22;9505;50.882;5.350;2023-04-06T06:57:50;6.10;99.90
18753;DHT22;9505;50.882;5.350;2023-04-06T07:00:16;6.30;99.90
18753;DHT22;9505;50.882;5.350;2023-04-06T07:02:42;6.50;99.90
18753;DHT22;9505;50.882;5.350;2023-04-06T07:05:07;6.80;99.90
18753;DHT22;9505;50.882;5.350;2023-04-06T07:07:33;7.10;99.90
18753;DHT22;9505;50.882;5.350;2023-04-06T07:10:00;7.30;99.90
18753;DHT22;9505;50.882;5.350;2023-04-06T07:12:26;7.50;99.90
18753;DHT22;9505;50.882;5.350;2023-04-06T07:14:51;7.70;99.90
18753;DHT22;9505;50.882;5.350;2023-04-06T07:17:17;7.90;99.90
18753;DHT22;9505;50.882;5.350;2023-04-06T07:19:43;8.20;99.90
18753;DHT22;9505;50.882;5.350;2023-04-06T07:22:09;8.40;99.90
18753;DHT22;9505;50.882;5.350;2023-04-06T07:24:34;8.60;99.90
18753;DHT22;9505;50.882;5.350;2023-04-06T07:27:00;8.40;99.90
18753;DHT22;9505;50.882;5.350;2023-04-06T07:29:26;8.60;99.90
18753;DHT22;9505;50.882;5.350;2023-04-06T07:31:53;8.80;99.90
18753;DHT22;9505;50.882;5.350;2023-04-06T07:34:18;9.00;99.90
18753;DHT22;9505;50.882;5.350;2023-04-06T07:36:44;9.10;99.90
18753;DHT22;9505;50.882;5.350;2023-04-06T07:39:10;9.30;99.90
18753;DHT22;9505;50.882;5.350;2023-04-06T07:41:36;9.40;99.90
18753;DHT22;9505;50.882;5.350;2023-04-06T07:44:02;9.50;99.90
18753;DHT22;9505;50.882;5.350;2023-04-06T07:46:27;9.60;99.90
18753;DHT22;9505;50.882;5.350;2023-04-06T07:48:53;9.50;99.90
18753;DHT22;9505;50.882;5.350;2023-04-06T07:51:19;9.50;99.90
18753;DHT22;9505;50.882;5.350;2023-04-06T07:53:45;9.50;99.90
18753;DHT22;9505;50.882;5.350;2023-04-06T07:56:10;9.60;99.90
18753;DHT22;9505;50.882;5.350;2023-04-06T07:58:37;9.50;99.90
18753;DHT22;9505;50.882;5.350;2023-04-06T08:01:03;9.60;99.90
18753;DHT22;9505;50.882;5.350;2023-04-06T08:03:29;9.70;99.90
18753;DHT22;9505;50.882;5.350;2023-04-06T08:05:54;9.70;99.90
18753;DHT22;9505;50.882;5.350;2023-04-06T08:08:20;9.60;99.90
18753;DHT22;9505;50.882;5.350;2023-04-06T08:10:48;9.80;99.90
18753;DHT22;9505;50.882;5.350;2023-04-06T08:13:14;9.90;99.90
18753;DHT22;9505;50.882;5.350;2023-04-06T08:15:40;10.00;99.90
18753;DHT22;9505;50.882;5.350;2023-04-06T08:18:05;10.10;99.90
18753;DHT22;9505;50.882;5.350;2023-04-06T08:20:31;10.00;99.90
18753;DHT22;9505;50.882;5.350;2023-04-06T08:22:57;10.00;99.90
18753;DHT22;9505;50.882;5.350;2023-04-06T08:25:22;10.10;99.90
18753;DHT22;9505;50.882;5.350;2023-04-06T08:27:48;10.20;99.90
18753;DHT22;9505;50.882;5.350;2023-04-06T08:30:14;10.30;99.90
18753;DHT22;9505;50.882;5.350;2023-04-06T08:32:41;10.30;99.90
18753;DHT22;9505;50.882;5.350;2023-04-06T08:35:07;10.50;99.90
18753;DHT22;9505;50.882;5.350;2023-04-06T08:37:33;10.80;99.90
18753;DHT22;9505;50.882;5.350;2023-04-06T08:39:59;10.90;99.90
18753;DHT22;9505;50.882;5.350;2023-04-06T08:42:26;11.20;99.90
18753;DHT22;9505;50.882;5.350;2023-04-06T08:44:54;11.50;99.90
18753;DHT22;9505;50.882;5.350;2023-04-06T08:47:21;11.50;99.90
18753;DHT22;9505;50.882;5.350;2023-04-06T08:49:47;11.60;99.90
18753;DHT22;9505;50.882;5.350;2023-04-06T08:52:13;11.70;99.90
18753;DHT22;9505;50.882;5.350;2023-04-06T08:54:40;11.80;99.90
18753;DHT22;9505;50.882;5.350;2023-04-06T08:57:06;11.60;99.90
18753;DHT22;9505;50.882;5.350;2023-04-06T08:59:33;11.40;99.90
18753;DHT22;9505;50.882;5.350;2023-04-06T09:02:01;10.90;99.90
18753;DHT22;9505;50.882;5.350;2023-04-06T09:04:28;10.90;99.90
18753;DHT22;9505;50.882;5.350;2023-04-06T09:06:54;11.10;99.90
18753;DHT22;9505;50.882;5.350;2023-04-06T09:09:19;11.30;99.90
18753;DHT22;9505;50.882;5.350;2023-04-06T09:11:50;11.30;99.90
18753;DHT22;9505;50.882;5.350;2023-04-06T09:14:16;11.30;99.90
18753;DHT22;9505;50.882;5.350;2023-04-06T09:16:44;11.20;99.90
18753;DHT22;9505;50.882;5.350;2023-04-06T09:19:11;11.00;99.90
18753;DHT22;9505;50.882;5.350;2023-04-06T09:21:37;11.10;99.90
18753;DHT22;9505;50.882;5.350;2023-04-06T09:24:07;11.20;99.90
18753;DHT22;9505;50.882;5.350;2023-04-06T09:26:43;11.10;99.90
18753;DHT22;9505;50.882;5.350;2023-04-06T09:29:09;11.00;99.90
18753;DHT22;9505;50.882;5.350;2023-04-06T09:31:35;10.90;99.90
18753;DHT22;9505;50.882;5.350;2023-04-06T09:34:01;11.10;99.90
18753;DHT22;9505;50.882;5.350;2023-04-06T09:36:35;11.10;99.90
18753;DHT22;9505;50.882;5.350;2023-04-06T09:39:04;11.20;99.90
18753;DHT22;9505;50.882;5.350;2023-04-06T09:41:34;10.90;99.90
18753;DHT22;9505;50.882;5.350;2023-04-06T09:44:06;10.90;99.90
18753;DHT22;9505;50.882;5.350;2023-04-06T09:46:34;10.70;99.90
18753;DHT22;9505;50.882;5.350;2023-04-06T09:49:02;10.50;99.90
18753;DHT22;9505;50.882;5.350;2023-04-06T09:51:38;10.60;99.90
18753;DHT22;9505;50.882;5.350;2023-04-06T09:54:05;10.40;99.90
18753;DHT22;9505;50.882;5.350;2023-04-06T09:56:37;10.20;99.90
18753;DHT22;9505;50.882;5.350;2023-04-06T09:59:09;10.10;99.90
18753;DHT22;9505;50.882;5.350;2023-04-06T10:01:39;10.10;99.90
18753;DHT22;9505;50.882;5.350;2023-04-06T10:06:49;10.20;99.90
18753;DHT22;9505;50.882;5.350;2023-04-06T10:09:18;10.20;99.90
18753;DHT22;9505;50.882;5.350;2023-04-06T10:11:47;10.30;99.90
18753;DHT22;9505;50.882;5.350;2023-04-06T10:14:15;10.40;99.90
18753;DHT22;9505;50.882;5.350;2023-04-06T10:16:41;10.30;99.90
18753;DHT22;9505;50.882;5.350;2023-04-06T10:19:20;10.40;99.90
18753;DHT22;9505;50.882;5.350;2023-04-06T10:21:51;10.50;99.90
18753;DHT22;9505;50.882;5.350;2023-04-06T10:24:19;10.60;99.90
18753;DHT22;9505;50.882;5.350;2023-04-06T10:27:03;10.20;99.90
18753;DHT22;9505;50.882;5.350;2023-04-06T10:29:47;9.90;99.90
18753;DHT22;9505;50.882;5.350;2023-04-06T10:32:14;9.60;99.90
18753;DHT22;9505;50.882;5.350;2023-04-06T10:34:40;9.50;99.90
18753;DHT22;9505;50.882;5.350;2023-04-06T10:37:15;9.50;99.90
18753;DHT22;9505;50.882;5.350;2023-04-06T10:39:54;9.50;99.90
18753;DHT22;9505;50.882;5.350;2023-04-06T10:42:35;9.60;99.90
18753;DHT22;9505;50.882;5.350;2023-04-06T10:45:01;9.60;99.90
18753;DHT22;9505;50.882;5.350;2023-04-06T10:47:39;9.50;99.90
18753;DHT22;9505;50.882;5.350;2023-04-06T10:50:05;9.40;99.90
18753;DHT22;9505;50.882;5.350;2023-04-06T10:52:31;9.40;99.90
18753;DHT22;9505;50.882;5.350;2023-04-06T10:54:57;9.50;99.90
18753;DHT22;9505;50.882;5.350;2023-04-06T10:57:29;9.50;99.90
18753;DHT22;9505;50.882;5.350;2023-04-06T10:59:56;9.60;99.90
18753;DHT22;9505;50.882;5.350;2023-04-06T11:02:21;9.50;99.90
18753;DHT22;9505;50.882;5.350;2023-04-06T11:04:57;9.60;99.90
18753;DHT22;9505;50.882;5.350;2023-04-06T11:07:27;9.70;99.90
18753;DHT22;9505;50.882;5.350;2023-04-06T11:09:54;9.90;99.90
18753;DHT22;9505;50.882;5.350;2023-04-06T11:12:27;9.90;99.90
18753;DHT22;9505;50.882;5.350;2023-04-06T11:14:58;9.70;99.90
18753;DHT22;9505;50.882;5.350;2023-04-06T11:17:35;9.70;99.90
18753;DHT22;9505;50.882;5.350;2023-04-06T11:20:05;9.60;99.90
18753;DHT22;9505;50.882;5.350;2023-04-06T11:22:34;9.50;99.90
18753;DHT22;9505;50.882;5.350;2023-04-06T11:25:07;9.50;99.90
18753;DHT22;9505;50.882;5.350;2023-04-06T11:27:34;9.60;99.90
18753;DHT22;9505;50.882;5.350;2023-04-06T11:30:01;9.70;99.90
18753;DHT22;9505;50.882;5.350;2023-04-06T11:32:27;9.90;99.90
18753;DHT22;9505;50.882;5.350;2023-04-06T11:34:52;10.00;99.90
18753;DHT22;9505;50.882;5.350;2023-04-06T11:37:18;10.00;99.90
18753;DHT22;9505;50.882;5.350;2023-04-06T11:39:49;9.80;99.90
18753;DHT22;9505;50.882;5.350;2023-04-06T11:42:26;9.50;99.90
18753;DHT22;9505;50.882;5.350;2023-04-06T11:44:54;9.20;99.90
18753;DHT22;9505;50.882;5.350;2023-04-06T11:47:30;9.20;99.90
18753;DHT22;9505;50.882;5.350;2023-04-06T11:49:56;9.10;99.90
18753;DHT22;9505;50.882;5.350;2023-04-06T11:52:30;9.00;99.90
18753;DHT22;9505;50.882;5.350;2023-04-06T11:54:56;9.10;99.90
18753;DHT22;9505;50.882;5.350;2023-04-06T11:57:23;9.30;99.90
18753;DHT22;9505;50.882;5.350;2023-04-06T11:59:51;9.60;99.90
18753;DHT22;9505;50.882;5.350;2023-04-06T12:02:16;9.40;99.90
18753;DHT22;9505;50.882;5.350;2023-04-06T12:04:43;9.30;99.90
18753;DHT22;9505;50.882;5.350;2023-04-06T12:07:09;9.50;99.90
18753;DHT22;9505;50.882;5.350;2023-04-06T12:09:35;9.50;99.90
18753;DHT22;9505;50.882;5.350;2023-04-06T12:12:02;9.30;99.90
18753;DHT22;9505;50.882;5.350;2023-04-06T12:14:29;9.30;99.90
18753;DHT22;9505;50.882;5.350;2023-04-06T12:16:56;9.40;99.90
18753;DHT22;9505;50.882;5.350;2023-04-06T12:19:22;9.30;99.90
18753;DHT22;9505;50.882;5.350;2023-04-06T12:21:54;9.30;99.90
18753;DHT22;9505;50.882;5.350;2023-04-06T12:24:20;9.40;99.90
18753;DHT22;9505;50.882;5.350;2023-04-06T12:26:46;9.70;99.90
18753;DHT22;9505;50.882;5.350;2023-04-06T12:29:12;9.70;99.90
18753;DHT22;9505;50.882;5.350;2023-04-06T12:31:38;9.50;99.90
18753;DHT22;9505;50.882;5.350;2023-04-06T12:34:06;9.30;99.90
18753;DHT22;9505;50.882;5.350;2023-04-06T12:36:32;9.40;99.90
18753;DHT22;9505;50.882;5.350;2023-04-06T12:38:58;9.30;99.90
18753;DHT22;9505;50.882;5.350;2023-04-06T12:41:24;9.30;99.90
18753;DHT22;9505;50.882;5.350;2023-04-06T12:43:50;9.20;99.90
18753;DHT22;9505;50.882;5.350;2023-04-06T12:46:16;9.10;99.90
18753;DHT22;9505;50.882;5.350;2023-04-06T12:48:42;9.20;99.90
18753;DHT22;9505;50.882;5.350;2023-04-06T12:51:07;9.30;99.90
18753;DHT22;9505;50.882;5.350;2023-04-06T12:53:34;9.30;99.90
18753;DHT22;9505;50.882;5.350;2023-04-06T12:56:00;9.40;99.90
18753;DHT22;9505;50.882;5.350;2023-04-06T12:58:26;9.30;99.90
18753;DHT22;9505;50.882;5.350;2023-04-06T13:00:53;9.40;99.90
18753;DHT22;9505;50.882;5.350;2023-04-06T13:03:19;9.30;99.90
18753;DHT22;9505;50.882;5.350;2023-04-06T13:05:54;9.10;99.90
18753;DHT22;9505;50.882;5.350;2023-04-06T13:08:20;8.90;99.90
18753;DHT22;9505;50.882;5.350;2023-04-06T13:10:50;8.90;99.90
18753;DHT22;9505;50.882;5.350;2023-04-06T13:13:20;9.00;99.90
18753;DHT22;9505;50.882;5.350;2023-04-06T13:15:45;9.10;99.90
18753;DHT22;9505;50.882;5.350;2023-04-06T13:18:11;9.20;99.90
18753;DHT22;9505;50.882;5.350;2023-04-06T13:20:37;9.40;99.90
18753;DHT22;9505;50.882;5.350;2023-04-06T13:23:03;9.60;99.90
18753;DHT22;9505;50.882;5.350;2023-04-06T13:25:29;9.80;99.90
18753;DHT22;9505;50.882;5.350;2023-04-06T13:27:55;9.80;99.90
18753;DHT22;9505;50.882;5.350;2023-04-06T13:30:21;9.90;99.90
18753;DHT22;9505;50.882;5.350;2023-04-06T13:32:46;9.80;99.90
18753;DHT22;9505;50.882;5.350;2023-04-06T13:35:12;9.80;99.90
18753;DHT22;9505;50.882;5.350;2023-04-06T13:37:38;9.80;99.90
18753;DHT22;9505;50.882;5.350;2023-04-06T13:40:05;9.70;99.90
18753;DHT22;9505;50.882;5.350;2023-04-06T13:42:31;9.70;99.90
18753;DHT22;9505;50.882;5.350;2023-04-06T13:44:58;9.70;99.90
18753;DHT22;9505;50.882;5.350;2023-04-06T13:47:24;9.70;99.90
18753;DHT22;9505;50.882;5.350;2023-04-06T13:49:50;9.70;99.90
18753;DHT22;9505;50.882;5.350;2023-04-06T13:52:19;9.60;99.90
18753;DHT22;9505;50.882;5.350;2023-04-06T13:54:45;9.50;99.90
18753;DHT22;9505;50.882;5.350;2023-04-06T13:57:11;9.50;99.90
18753;DHT22;9505;50.882;5.350;2023-04-06T13:59:38;9.50;99.90
18753;DHT22;9505;50.882;5.350;2023-04-06T14:02:05;9.50;99.90
18753;DHT22;9505;50.882;5.350;2023-04-06T14:04:31;9.40;99.90
18753;DHT22;9505;50.882;5.350;2023-04-06T14:07:01;9.40;99.90
18753;DHT22;9505;50.882;5.350;2023-04-06T14:09:27;9.30;99.90
18753;DHT22;9505;50.882;5.350;2023-04-06T14:11:53;9.20;99.90
18753;DHT22;9505;50.882;5.350;2023-04-06T14:14:19;9.20;99.90
18753;DHT22;9505;50.882;5.350;2023-04-06T14:16:45;9.30;99.90
18753;DHT22;9505;50.882;5.350;2023-04-06T14:19:13;9.30;99.90
18753;DHT22;9505;50.882;5.350;2023-04-06T14:21:40;9.40;99.90
18753;DHT22;9505;50.882;5.350;2023-04-06T14:24:07;9.50;99.90
18753;DHT22;9505;50.882;5.350;2023-04-06T14:26:33;9.80;99.90
18753;DHT22;9505;50.882;5.350;2023-04-06T14:29:00;10.10;99.90
18753;DHT22;9505;50.882;5.350;2023-04-06T14:31:26;10.10;99.90
18753;DHT22;9505;50.882;5.350;2023-04-06T14:33:52;10.00;99.90
18753;DHT22;9505;50.882;5.350;2023-04-06T14:36:18;9.70;99.90
18753;DHT22;9505;50.882;5.350;2023-04-06T14:38:44;9.60;99.90
18753;DHT22;9505;50.882;5.350;2023-04-06T14:41:18;9.70;99.90
18753;DHT22;9505;50.882;5.350;2023-04-06T14:43:45;9.50;99.90
18753;DHT22;9505;50.882;5.350;2023-04-06T14:46:11;9.40;99.90
18753;DHT22;9505;50.882;5.350;2023-04-06T14:48:37;9.50;99.90
18753;DHT22;9505;50.882;5.350;2023-04-06T14:51:02;9.50;99.90
18753;DHT22;9505;50.882;5.350;2023-04-06T14:53:29;9.40;99.90
18753;DHT22;9505;50.882;5.350;2023-04-06T14:55:55;9.20;99.90
18753;DHT22;9505;50.882;5.350;2023-04-06T14:58:22;9.00;99.90
18753;DHT22;9505;50.882;5.350;2023-04-06T15:00:48;8.90;99.90
18753;DHT22;9505;50.882;5.350;2023-04-06T15:03:15;8.90;99.90
18753;DHT22;9505;50.882;5.350;2023-04-06T15:05:41;8.80;99.90
18753;DHT22;9505;50.882;5.350;2023-04-06T15:08:07;8.90;99.90
18753;DHT22;9505;50.882;5.350;2023-04-06T15:10:35;8.80;99.90
18753;DHT22;9505;50.882;5.350;2023-04-06T15:13:02;8.90;99.90
18753;DHT22;9505;50.882;5.350;2023-04-06T15:15:28;8.80;99.90
18753;DHT22;9505;50.882;5.350;2023-04-06T15:17:54;9.00;99.90
18753;DHT22;9505;50.882;5.350;2023-04-06T15:20:19;8.90;99.90
18753;DHT22;9505;50.882;5.350;2023-04-06T15:22:45;9.00;99.90
18753;DHT22;9505;50.882;5.350;2023-04-06T15:25:11;8.90;99.90
18753;DHT22;9505;50.882;5.350;2023-04-06T15:27:36;8.80;99.90
18753;DHT22;9505;50.882;5.350;2023-04-06T15:30:03;8.90;99.90
18753;DHT22;9505;50.882;5.350;2023-04-06T15:32:28;8.80;99.90
18753;DHT22;9505;50.882;5.350;2023-04-06T15:34:57;8.80;99.90
18753;DHT22;9505;50.882;5.350;2023-04-06T15:37:23;8.80;99.90
18753;DHT22;9505;50.882;5.350;2023-04-06T15:39:48;8.80;99.90
18753;DHT22;9505;50.882;5.350;2023-04-06T15:42:14;8.70;99.90
18753;DHT22;9505;50.882;5.350;2023-04-06T15:44:40;8.70;99.90
18753;DHT22;9505;50.882;5.350;2023-04-06T15:47:05;8.70;99.90
18753;DHT22;9505;50.882;5.350;2023-04-06T15:49:31;8.70;99.90
18753;DHT22;9505;50.882;5.350;2023-04-06T15:51:57;8.60;99.90
18753;DHT22;9505;50.882;5.350;2023-04-06T15:54:22;8.60;99.90
18753;DHT22;9505;50.882;5.350;2023-04-06T15:56:48;8.50;99.90
18753;DHT22;9505;50.882;5.350;2023-04-06T15:59:15;8.40;99.90